createdAt,value
2022-11-05T00:02:33.669Z,18.20
2022-11-05T00:05:22.892Z,18.50
2022-11-05T00:08:12.484Z,16.70
2022-11-05T00:10:55.460Z,17.20
2022-11-05T00:13:44.030Z,22.00
2022-11-05T00:16:31.321Z,22.70
2022-11-05T00:19:15.474Z,27.30
2022-11-05T00:22:02.912Z,19.80
2022-11-05T00:25:04.312Z,22.00
2022-11-05T00:27:35.014Z,17.90
2022-11-05T00:30:25.457Z,20.70
2022-11-05T00:33:02.422Z,20.70
2022-11-05T00:35:44.944Z,24.10
2022-11-05T00:38:27.723Z,22.80
2022-11-05T00:40:56.845Z,18.90
2022-11-05T00:43:58.049Z,23.00
2022-11-05T00:46:27.254Z,22.00
2022-11-05T00:49:15.090Z,15.20
2022-11-05T00:51:43.927Z,20.40
2022-11-05T00:54:12.884Z,25.40
2022-11-05T00:56:57.450Z,20.10
2022-11-05T00:59:30.110Z,27.50
2022-11-05T01:02:13.694Z,23.60
2022-11-05T01:04:55.988Z,25.20
2022-11-05T01:07:38.679Z,20.80
2022-11-05T01:10:08.471Z,19.00
2022-11-05T01:12:51.401Z,20.70
2022-11-05T01:15:20.980Z,18.40
2022-11-05T01:18:04.234Z,21.40
2022-11-05T01:20:33.255Z,18.80
2022-11-05T01:23:02.633Z,20.00
2022-11-05T01:25:45.103Z,19.80
2022-11-05T01:28:14.100Z,21.00
2022-11-05T01:30:57.685Z,25.60
2022-11-05T01:33:26.872Z,18.10
2022-11-05T01:36:09.985Z,21.10
2022-11-05T01:38:38.779Z,21.10
2022-11-05T01:41:08.072Z,22.70
2022-11-05T01:43:53.388Z,17.00
2022-11-05T01:46:46.699Z,18.10
2022-11-05T01:49:35.063Z,22.40
2022-11-05T01:52:06.238Z,26.10
2022-11-05T01:54:48.661Z,21.70
2022-11-05T01:57:32.950Z,23.20
2022-11-05T02:00:17.312Z,23.00
2022-11-05T02:02:46.405Z,22.60
2022-11-05T02:05:16.545Z,20.80
2022-11-05T02:08:00.310Z,18.40
2022-11-05T02:10:30.194Z,27.80
2022-11-05T02:12:59.652Z,26.80
2022-11-05T02:16:18.270Z,20.80
2022-11-05T02:18:53.156Z,32.40
2022-11-05T02:22:11.809Z,24.40
2022-11-05T02:25:18.823Z,22.20
2022-11-05T02:28:20.221Z,24.50
2022-11-05T02:31:11.213Z,26.80
2022-11-05T02:34:15.633Z,25.90
2022-11-05T02:36:55.633Z,23.60
2022-11-05T02:39:50.101Z,28.40
2022-11-05T02:42:41.988Z,29.50
2022-11-05T02:45:23.692Z,27.70
2022-11-05T02:48:37.784Z,34.80
2022-11-05T02:51:51.968Z,25.00
2022-11-05T02:54:32.644Z,31.50
2022-11-05T02:57:14.952Z,28.80
2022-11-05T03:00:02.509Z,29.10
2022-11-05T03:02:45.053Z,28.50
2022-11-05T03:05:43.580Z,23.90
2022-11-05T03:08:37.174Z,29.70
2022-11-05T03:11:15.199Z,29.80
2022-11-05T03:14:19.464Z,23.40
2022-11-05T03:17:10.811Z,22.90
2022-11-05T03:20:12.974Z,27.80
2022-11-05T03:22:53.678Z,23.40
2022-11-05T03:25:27.392Z,24.10
2022-11-05T03:28:05.685Z,31.20
2022-11-05T03:30:38.571Z,24.70
2022-11-05T03:33:17.664Z,29.10
2022-11-05T03:36:06.233Z,23.60
2022-11-05T03:38:39.107Z,27.60
2022-11-05T03:41:12.616Z,29.00
2022-11-05T03:43:58.853Z,33.60
2022-11-05T03:46:45.931Z,24.30
2022-11-05T03:49:46.334Z,28.20
2022-11-05T03:52:20.493Z,29.10
2022-11-05T03:55:03.903Z,27.10
2022-11-05T03:57:41.158Z,26.60
2022-11-05T04:00:11.623Z,32.80
2022-11-05T04:02:54.282Z,34.60
2022-11-05T04:05:23.641Z,32.60
2022-11-05T04:08:25.586Z,31.80
2022-11-05T04:11:30.452Z,32.30
2022-11-05T04:13:59.772Z,34.80
2022-11-05T04:17:01.412Z,34.20
2022-11-05T04:20:03.739Z,44.10
2022-11-05T04:22:54.261Z,34.20
2022-11-05T04:25:23.888Z,32.70
2022-11-05T04:27:52.706Z,34.40
2022-11-05T04:30:35.538Z,31.90
2022-11-05T04:33:17.999Z,33.60
2022-11-05T04:35:49.216Z,42.30
2022-11-05T04:38:20.255Z,33.30
2022-11-05T04:40:49.819Z,35.80
2022-11-05T04:43:32.624Z,28.70
2022-11-05T04:46:02.043Z,47.90
2022-11-05T04:48:44.816Z,35.20
2022-11-05T04:51:14.453Z,34.80
2022-11-05T04:53:56.777Z,38.80
2022-11-05T04:56:39.098Z,35.00
2022-11-05T04:59:21.856Z,38.70
2022-11-05T05:02:04.313Z,39.50
2022-11-05T05:04:33.765Z,36.40
2022-11-05T05:07:02.742Z,33.50
2022-11-05T05:09:31.670Z,41.00
2022-11-05T05:12:14.370Z,49.30
2022-11-05T05:14:43.183Z,49.70
2022-11-05T05:17:25.668Z,47.40
2022-11-05T05:20:13.463Z,48.00
2022-11-05T05:22:56.414Z,42.00
2022-11-05T05:25:25.721Z,48.50
2022-11-05T05:28:08.679Z,43.70
2022-11-05T05:30:37.759Z,45.20
2022-11-05T05:33:20.328Z,44.20
2022-11-05T05:35:49.384Z,43.80
2022-11-05T05:38:18.452Z,40.60
2022-11-05T05:40:47.756Z,48.40
2022-11-05T05:43:32.444Z,52.30
2022-11-05T05:46:17.607Z,46.90
2022-11-05T05:49:00.156Z,42.60
2022-11-05T05:51:42.938Z,46.30
2022-11-05T05:54:12.261Z,51.70
2022-11-05T05:56:44.132Z,38.60
2022-11-05T05:59:12.880Z,45.70
2022-11-05T06:01:42.379Z,48.90
2022-11-05T06:04:11.707Z,48.60
2022-11-05T06:06:40.998Z,41.50
2022-11-05T06:09:23.543Z,41.70
2022-11-05T06:12:06.724Z,49.80
2022-11-05T06:14:49.571Z,61.30
2022-11-05T06:17:33.482Z,53.10
2022-11-05T06:20:03.063Z,49.40
2022-11-05T06:22:54.909Z,54.70
2022-11-05T06:25:24.857Z,51.90
2022-11-05T06:27:54.210Z,47.30
2022-11-05T06:30:23.963Z,51.10
2022-11-05T06:32:52.992Z,50.10
2022-11-05T06:35:22.118Z,50.80
2022-11-05T06:37:51.141Z,53.70
2022-11-05T06:40:20.101Z,58.40
2022-11-05T06:42:53.102Z,52.40
2022-11-05T06:45:35.478Z,48.20
2022-11-05T06:48:04.591Z,49.50
2022-11-05T06:50:33.873Z,49.30
2022-11-05T06:53:16.351Z,56.40
2022-11-05T06:56:02.732Z,46.40
2022-11-05T06:58:32.549Z,54.60
2022-11-05T07:01:08.452Z,51.10
2022-11-05T07:03:51.413Z,47.50
2022-11-05T07:06:36.951Z,48.10
2022-11-05T07:09:06.607Z,46.40
2022-11-05T07:11:35.386Z,52.00
2022-11-05T07:14:04.511Z,48.20
2022-11-05T07:16:47.428Z,54.70
2022-11-05T07:19:16.717Z,52.20
2022-11-05T07:21:59.416Z,47.90
2022-11-05T07:24:28.619Z,51.50
2022-11-05T07:27:11.215Z,46.50
2022-11-05T07:29:40.171Z,51.40
2022-11-05T07:32:09.329Z,43.40
2022-11-05T07:34:52.553Z,48.60
2022-11-05T07:37:44.304Z,52.40
2022-11-05T07:40:15.314Z,53.70
2022-11-05T07:42:59.893Z,48.90
2022-11-05T07:45:42.706Z,53.40
2022-11-05T07:48:11.953Z,54.80
2022-11-05T07:50:40.854Z,53.80
2022-11-05T07:53:16.415Z,57.70
2022-11-05T07:55:48.104Z,51.30
2022-11-05T07:58:16.795Z,49.80
2022-11-05T08:00:45.791Z,53.70
2022-11-05T08:03:17.879Z,53.70
2022-11-05T08:05:48.220Z,58.90
2022-11-05T08:08:18.785Z,52.80
2022-11-05T08:10:48.039Z,53.90
2022-11-05T08:13:18.327Z,48.90
2022-11-05T08:16:02.126Z,51.20
2022-11-05T08:18:32.772Z,59.20
2022-11-05T08:21:04.319Z,50.20
2022-11-05T08:23:46.602Z,55.60
2022-11-05T08:26:29.497Z,47.70
2022-11-05T08:29:00.850Z,52.40
2022-11-05T08:31:31.738Z,47.60
2022-11-05T08:34:02.740Z,50.30
2022-11-05T08:36:31.724Z,43.70
2022-11-05T08:39:00.856Z,49.10
2022-11-05T08:41:29.975Z,47.90
2022-11-05T08:43:59.155Z,53.70
2022-11-05T08:46:42.033Z,54.90
2022-11-05T08:49:24.303Z,53.20
2022-11-05T08:51:53.119Z,48.50
2022-11-05T08:54:35.509Z,43.30
2022-11-05T08:57:17.863Z,48.60
2022-11-05T08:59:47.004Z,45.60
2022-11-05T09:02:16.007Z,61.50
2022-11-05T09:04:45.391Z,43.80
2022-11-05T09:07:27.721Z,53.20
2022-11-05T09:09:56.403Z,53.30
2022-11-05T09:12:25.610Z,58.50
2022-11-05T09:14:54.678Z,53.50
2022-11-05T09:17:23.650Z,60.10
2022-11-05T09:19:52.559Z,52.90
2022-11-05T09:22:21.663Z,55.50
2022-11-05T09:24:50.547Z,54.20
2022-11-05T09:27:32.896Z,49.60
2022-11-05T09:30:01.546Z,43.80
2022-11-05T09:32:44.022Z,43.00
2022-11-05T09:35:13.029Z,49.00
2022-11-05T09:37:42.281Z,43.70
2022-11-05T09:40:18.009Z,39.70
2022-11-05T09:42:47.635Z,39.10
2022-11-05T09:45:22.500Z,36.60
2022-11-05T09:48:11.702Z,40.70
2022-11-05T09:50:44.422Z,39.80
2022-11-05T09:53:24.990Z,41.20
2022-11-05T09:55:57.441Z,41.40
2022-11-05T09:58:39.721Z,38.70
2022-11-05T10:01:26.565Z,40.20
2022-11-05T10:03:59.951Z,36.50
2022-11-05T10:06:30.247Z,36.50
2022-11-05T10:09:17.468Z,34.90
2022-11-05T10:11:55.822Z,36.00
2022-11-05T10:14:46.879Z,31.80
2022-11-05T10:17:24.809Z,39.70
2022-11-05T10:20:15.862Z,39.60
2022-11-05T10:22:49.282Z,39.40
2022-11-05T10:25:21.289Z,42.20
2022-11-05T10:27:53.789Z,41.10
2022-11-05T10:30:22.959Z,32.60
2022-11-05T10:33:07.530Z,41.30
2022-11-05T10:35:49.507Z,41.00
2022-11-05T10:38:18.453Z,44.30
2022-11-05T10:41:04.326Z,39.80
2022-11-05T10:43:41.851Z,35.20
2022-11-05T10:46:35.647Z,33.30
2022-11-05T10:49:25.828Z,33.40
2022-11-05T10:51:57.676Z,43.30
2022-11-05T10:54:32.749Z,35.70
2022-11-05T10:57:01.637Z,43.20
2022-11-05T10:59:43.940Z,33.60
2022-11-05T11:02:26.503Z,35.20
2022-11-05T11:05:21.730Z,37.20
2022-11-05T11:08:00.678Z,40.90
2022-11-05T11:10:32.915Z,33.60
2022-11-05T11:13:02.661Z,32.70
2022-11-05T11:15:49.539Z,34.80
2022-11-05T11:18:25.662Z,46.90
2022-11-05T11:20:54.370Z,34.20
2022-11-05T11:23:39.026Z,33.10
2022-11-05T11:26:22.265Z,31.50
2022-11-05T11:29:00.960Z,28.20
2022-11-05T11:31:32.160Z,31.40
2022-11-05T11:34:04.833Z,26.30
2022-11-05T11:36:39.054Z,29.90
2022-11-05T11:42:20.771Z,24.40
2022-11-05T11:44:51.076Z,24.00
2022-11-05T11:47:22.520Z,25.10
2022-11-05T11:50:04.995Z,22.40
2022-11-05T11:52:36.579Z,21.80
2022-11-05T11:55:11.416Z,21.80
2022-11-05T11:58:05.114Z,30.20
2022-11-05T12:00:55.672Z,23.40
2022-11-05T12:03:49.490Z,22.50
2022-11-05T12:06:55.764Z,24.20
2022-11-05T12:10:04.826Z,24.40
2022-11-05T12:13:25.008Z,22.10
2022-11-05T12:16:10.622Z,23.10
2022-11-05T12:18:42.191Z,22.60
2022-11-05T12:21:59.211Z,24.90
2022-11-05T12:24:55.640Z,23.30
2022-11-05T12:27:38.105Z,28.00
2022-11-05T12:33:36.017Z,24.00
2022-11-05T12:36:42.338Z,22.90
2022-11-05T12:39:37.739Z,20.60
2022-11-05T12:42:32.693Z,28.00
2022-11-05T12:45:23.818Z,24.40
2022-11-05T12:48:16.192Z,31.80
2022-11-05T12:51:16.747Z,24.30
2022-11-05T12:54:20.941Z,24.40
2022-11-05T12:56:54.844Z,44.00
2022-11-05T12:59:51.676Z,29.50
2022-11-05T13:02:49.716Z,23.10
2022-11-05T13:05:35.717Z,30.20
2022-11-05T13:08:10.927Z,40.50
2022-11-05T13:11:12.140Z,31.50
2022-11-05T13:13:51.885Z,26.10
2022-11-05T13:17:03.643Z,24.30
2022-11-05T13:19:47.459Z,26.60
2022-11-05T13:22:28.440Z,25.00
2022-11-05T13:25:03.082Z,24.10
2022-11-05T13:28:08.060Z,28.10
2022-11-05T13:30:42.697Z,31.30
2022-11-05T13:33:21.453Z,25.20
2022-11-05T13:36:28.641Z,28.80
2022-11-05T13:39:33.194Z,21.10
2022-11-05T13:42:30.490Z,26.40
2022-11-05T13:45:08.066Z,23.10
2022-11-05T13:47:59.744Z,23.10
2022-11-05T13:51:00.405Z,33.70
2022-11-05T13:53:36.031Z,20.90
2022-11-05T13:56:35.481Z,16.90
2022-11-05T13:59:57.453Z,22.10
2022-11-05T14:02:53.062Z,23.50
2022-11-05T14:05:39.477Z,19.60
2022-11-05T14:08:30.337Z,21.70
2022-11-05T14:11:32.299Z,14.70
2022-11-05T14:14:08.967Z,18.30
2022-11-05T14:16:49.354Z,24.20
2022-11-05T14:19:50.111Z,14.30
2022-11-05T14:22:38.059Z,19.70
2022-11-05T14:25:20.143Z,14.50
2022-11-05T14:27:53.612Z,11.20
2022-11-05T14:30:48.092Z,13.40
2022-11-05T14:33:19.211Z,7.50
2022-11-05T14:35:48.606Z,9.30
2022-11-05T14:38:31.307Z,11.20
2022-11-05T14:41:05.438Z,10.00
2022-11-05T14:43:36.524Z,5.80
2022-11-05T14:46:07.700Z,9.40
2022-11-05T14:48:49.029Z,16.40
2022-11-05T14:51:24.016Z,10.80
2022-11-05T14:54:22.152Z,12.70
2022-11-05T14:57:05.442Z,11.70
2022-11-05T15:00:01.933Z,18.60
2022-11-05T15:02:40.023Z,24.50
2022-11-05T15:05:51.958Z,20.20
2022-11-05T15:08:30.643Z,25.80
2022-11-05T15:11:18.920Z,14.00
2022-11-05T15:13:58.318Z,14.90
2022-11-05T15:16:52.596Z,13.90
2022-11-05T15:19:23.746Z,13.30
2022-11-05T15:21:59.466Z,12.60
2022-11-05T15:24:31.060Z,10.80
2022-11-05T15:27:06.571Z,11.20
2022-11-05T15:29:35.817Z,9.40
2022-11-05T15:32:07.307Z,9.00
2022-11-05T15:34:37.176Z,17.20
2022-11-05T15:37:11.897Z,7.60
2022-11-05T15:39:44.229Z,13.20
2022-11-05T15:42:24.687Z,15.10
2022-11-05T15:44:57.405Z,13.00
2022-11-05T15:47:34.482Z,14.80
2022-11-05T15:50:18.503Z,19.60
2022-11-05T15:52:54.462Z,14.20
2022-11-05T15:55:48.182Z,14.70
2022-11-05T15:58:17.372Z,19.10
2022-11-05T16:00:49.404Z,22.60
2022-11-05T16:03:39.803Z,20.60
2022-11-05T16:06:10.823Z,19.20
2022-11-05T16:08:39.668Z,21.80
2022-11-05T16:11:08.553Z,17.00
2022-11-05T16:13:40.232Z,22.40
2022-11-05T16:16:15.321Z,28.80
2022-11-05T16:18:45.616Z,21.80
2022-11-05T16:21:23.173Z,22.30
2022-11-05T16:23:52.405Z,26.40
2022-11-05T16:29:34.896Z,20.20
2022-11-05T16:32:13.137Z,33.10
2022-11-05T16:34:48.431Z,21.00
2022-11-05T16:37:22.812Z,26.50
2022-11-05T16:39:52.449Z,30.10
2022-11-05T16:42:38.243Z,29.20
2022-11-05T16:45:08.306Z,38.00
2022-11-05T16:47:51.604Z,29.90
2022-11-05T16:50:27.445Z,27.20
2022-11-05T16:52:56.030Z,29.70
2022-11-05T16:55:24.772Z,32.10
2022-11-05T16:58:15.657Z,33.80
2022-11-05T17:00:44.439Z,27.10
2022-11-05T17:03:13.312Z,39.60
2022-11-05T17:05:42.487Z,25.50
2022-11-05T17:08:18.843Z,26.70
2022-11-05T17:10:54.493Z,26.60
2022-11-05T17:13:30.641Z,23.50
2022-11-05T17:16:04.888Z,22.20
2022-11-05T17:18:33.664Z,24.20
2022-11-05T17:21:02.330Z,22.60
2022-11-05T17:23:34.523Z,20.40
2022-11-05T17:26:07.669Z,21.20
2022-11-05T17:28:38.048Z,32.00
2022-11-05T17:31:09.424Z,32.20
2022-11-05T17:33:38.332Z,37.60
2022-11-05T17:36:09.137Z,22.00
2022-11-05T17:38:38.059Z,23.60
2022-11-05T17:41:18.395Z,28.20
2022-11-05T17:43:47.712Z,34.10
2022-11-05T17:46:17.465Z,27.80
2022-11-05T17:48:46.703Z,32.20
2022-11-05T17:51:18.671Z,22.10
2022-11-05T17:53:49.529Z,27.80
2022-11-05T17:56:32.223Z,20.20
2022-11-05T17:59:03.812Z,33.50
2022-11-05T18:01:36.150Z,29.50
2022-11-05T18:04:08.982Z,26.90
2022-11-05T18:06:39.785Z,25.80
2022-11-05T18:09:10.429Z,24.70
2022-11-05T18:11:40.004Z,22.00
2022-11-05T18:14:09.096Z,32.00
2022-11-05T18:16:38.166Z,27.00
2022-11-05T18:19:06.754Z,29.80
2022-11-05T18:21:35.632Z,29.20
2022-11-05T18:24:08.063Z,29.20
2022-11-05T18:26:36.950Z,30.30
2022-11-05T18:29:06.816Z,32.10
2022-11-05T18:31:35.768Z,27.10
2022-11-05T18:34:06.197Z,28.50
2022-11-05T18:36:34.788Z,26.80
2022-11-05T18:39:05.290Z,40.00
2022-11-05T18:41:33.942Z,31.40
2022-11-05T18:44:05.967Z,23.20
2022-11-05T18:49:23.571Z,40.60
2022-11-05T18:52:06.445Z,28.20
2022-11-05T18:54:35.428Z,47.00
2022-11-05T18:57:04.441Z,32.30
2022-11-05T18:59:39.226Z,27.70
2022-11-05T19:02:09.448Z,50.40
2022-11-05T19:04:38.759Z,27.80
2022-11-05T19:07:08.976Z,28.90
2022-11-05T19:09:39.280Z,36.10
2022-11-05T19:12:08.575Z,37.20
2022-11-05T19:14:37.180Z,37.40
2022-11-05T19:17:06.042Z,48.60
2022-11-05T19:19:34.581Z,45.50
2022-11-05T19:22:03.421Z,41.70
2022-11-05T19:24:32.326Z,36.50
2022-11-05T19:27:01.000Z,39.70
2022-11-05T19:29:29.740Z,41.50
2022-11-05T19:31:58.264Z,32.80
2022-11-05T19:34:26.968Z,46.00
2022-11-05T19:36:55.544Z,33.20
2022-11-05T19:39:24.158Z,46.20
2022-11-05T19:41:52.841Z,40.30
2022-11-05T19:44:21.746Z,37.20
2022-11-05T19:46:50.481Z,35.10
2022-11-05T19:49:19.545Z,34.20
2022-11-05T19:51:48.216Z,43.00
2022-11-05T19:54:17.382Z,34.40
2022-11-05T19:56:46.096Z,43.70
2022-11-05T19:59:14.821Z,35.40
2022-11-05T20:01:43.776Z,38.60
2022-11-05T20:04:14.308Z,52.50
2022-11-05T20:06:56.822Z,36.10
2022-11-05T20:09:26.718Z,46.60
2022-11-05T20:11:57.334Z,39.00
2022-11-05T20:14:26.935Z,39.20
2022-11-05T20:16:55.856Z,37.80
2022-11-05T20:19:24.743Z,42.50
2022-11-05T20:21:53.571Z,39.10
2022-11-05T20:24:35.991Z,45.70
2022-11-05T20:27:05.322Z,38.00
2022-11-05T20:29:35.884Z,47.20
2022-11-05T20:32:05.341Z,32.50
2022-11-05T20:34:35.257Z,40.70
2022-11-05T20:37:04.473Z,35.40
2022-11-05T20:39:46.662Z,31.30
2022-11-05T20:42:15.360Z,45.90
2022-11-05T20:44:44.347Z,35.50
2022-11-05T20:47:13.063Z,34.40
2022-11-05T20:49:42.072Z,39.10
2022-11-05T20:52:12.650Z,42.00
2022-11-05T20:54:41.046Z,49.40
2022-11-05T20:57:23.151Z,39.70
2022-11-05T21:00:08.183Z,41.00
2022-11-05T21:02:38.852Z,46.10
2022-11-05T21:05:08.635Z,49.10
2022-11-05T21:07:51.226Z,40.80
2022-11-05T21:10:20.482Z,37.70
2022-11-05T21:12:49.278Z,43.90
2022-11-05T21:15:21.473Z,40.20
2022-11-05T21:17:50.975Z,44.70
2022-11-05T21:20:19.768Z,41.70
2022-11-05T21:22:49.254Z,50.80
2022-11-05T21:25:18.086Z,48.90
2022-11-05T21:27:47.028Z,50.60
2022-11-05T21:30:15.713Z,46.70
2022-11-05T21:32:44.542Z,43.30
2022-11-05T21:35:27.318Z,45.10
2022-11-05T21:38:11.015Z,61.90
2022-11-05T21:40:53.811Z,45.90
2022-11-05T21:43:22.423Z,55.00
2022-11-05T21:45:51.882Z,51.10
2022-11-05T21:48:21.002Z,49.90
2022-11-05T21:51:22.329Z,58.60
2022-11-05T21:54:10.494Z,80.30
2022-11-05T21:56:57.818Z,60.40
2022-11-05T21:59:45.375Z,62.90
2022-11-05T22:02:20.454Z,69.70
2022-11-05T22:04:52.686Z,115.50
2022-11-05T22:07:38.375Z,85.40
2022-11-05T22:10:15.851Z,63.40
2022-11-05T22:12:46.425Z,52.90
2022-11-05T22:15:28.918Z,48.70
2022-11-05T22:18:11.460Z,52.60
2022-11-05T22:20:45.215Z,49.50
2022-11-05T22:23:34.053Z,41.20
2022-11-05T22:26:18.727Z,45.00
2022-11-05T22:28:47.368Z,52.20
2022-11-05T22:31:17.370Z,47.40
2022-11-05T22:33:52.168Z,49.50
2022-11-05T22:36:24.669Z,49.00
2022-11-05T22:38:53.898Z,42.10
2022-11-05T22:41:22.937Z,40.00
2022-11-05T22:43:52.054Z,39.20
2022-11-05T22:46:23.568Z,41.40
2022-11-05T22:49:07.890Z,39.30
2022-11-05T22:51:50.939Z,42.30
2022-11-05T22:54:19.741Z,44.80
2022-11-05T22:56:50.487Z,40.30
2022-11-05T22:59:19.837Z,41.90
2022-11-05T23:01:50.010Z,34.00
2022-11-05T23:04:19.383Z,37.20
2022-11-05T23:07:07.128Z,41.80
2022-11-05T23:09:55.171Z,38.90
2022-11-05T23:12:38.020Z,38.60
2022-11-05T23:15:09.237Z,39.50
2022-11-05T23:17:56.570Z,38.60
2022-11-05T23:21:11.801Z,28.00
2022-11-05T23:23:59.938Z,29.50
2022-11-05T23:26:54.331Z,32.40
2022-11-05T23:29:36.970Z,33.70
2022-11-05T23:32:24.771Z,32.00
2022-11-05T23:34:56.157Z,31.20
2022-11-05T23:37:46.928Z,19.90
2022-11-05T23:40:26.085Z,27.50
2022-11-05T23:43:29.991Z,27.20
2022-11-05T23:46:31.018Z,28.70
2022-11-05T23:49:00.148Z,23.40
2022-11-05T23:51:42.813Z,36.50
2022-11-05T23:54:11.846Z,34.30
2022-11-05T23:56:54.557Z,24.90
2022-11-05T23:59:23.515Z,25.50
